Accueil
METAR-TAF:

METAR-TAF

Aéroports :

Funafuti, Tuvalu

latitude: 08-31S, longitude: 179-13E, altitude: 1 m

Observation

Le bulletin a été fait il y a 26 minutes, à 20:00 UTC
Vent 2 kt de direction variable
Température 30°C
Humidité 75%
Pression 1010 hPa
Visibilité 10 km ou plus
Nuages épars à une hauteur de 1800 ft, Cumulus congestus.
Nuages fragmentés à une hauteur de 30000 ft

METAR: NGFU 222000Z VRB02KT 9999 SCT018TCU BKN300 30/25 Q1010

Heure: 08:26 (20:26 UTC)

Prévision

Le bulletin a été fait il y a 3 heures et 20 minutes, à 17:06 UTC
Prévision valable du 22 à 18 UTC au 23 à 18 UTC
Vent 5 kt de est
Visibilité 10 km ou plus
Quelques nuages à une hauteur de 2000 ft

TAF: NGFU 221706Z 2218/2318 09005KT 9999 FEW020

Observations et prévisions météorologiques de plus de 4000 aéroports (messages METAR et TAF).

Les stations disponibles sont représentées par des disques jaunes et rouges sur la carte.

Passer la souris dessus pour voir le nom de la station.

Cliquer dessus pour voir les observations et prévisions météorologiques.

Pour changer de carte: cliquez sur les boutons verts avec une croix noire pour zoomer, sur le bouton vert avec un tiret pour effectuer un zoom arrière, ou sur les flèches vertes pour les cartes adjacentes.


METAR-TAF: